Time;durP1;ratioP1;P1;durP2;ratioP2;P2;SDS_P1;SDS_P2;PMS_P1;PMS_P2;Temp;Humidity;BMP_temperature;BMP_pressure;BME280_temperature;BME280_humidity;BME280_pressure;Samples;Min_cycle;Max_cycle;Signal;HPM_P1;HPM_P2
2024/01/26 00:02:01;;;;;;;15.27;4.20;;;5.10;99.90;;;;;;5098803;27;20200;-61
2024/01/26 00:04:27;;;;;;;11.67;4.50;;;5.20;99.90;;;;;;5093703;27;20234;-53
2024/01/26 00:06:53;;;;;;;15.90;5.23;;;5.40;99.90;;;;;;5094729;27;20271;-53
2024/01/26 00:09:18;;;;;;;17.67;5.00;;;5.50;99.90;;;;;;5096297;27;21038;-55
2024/01/26 00:11:44;;;;;;;17.90;4.57;;;5.50;99.90;;;;;;5095489;27;20216;-53
2024/01/26 00:14:09;;;;;;;16.80;4.90;;;5.60;99.90;;;;;;5093919;27;20737;-53
2024/01/26 00:16:38;;;;;;;16.73;5.07;;;5.60;99.90;;;;;;5097423;27;20693;-55
2024/01/26 00:19:05;;;;;;;14.17;4.70;;;5.50;99.90;;;;;;5094110;27;20208;-55
2024/01/26 00:21:31;;;;;;;11.67;4.30;;;5.40;99.90;;;;;;5077708;27;20275;-62
2024/01/26 00:23:56;;;;;;;13.80;3.93;;;5.40;99.90;;;;;;5093725;27;20304;-60
2024/01/26 00:26:22;;;;;;;19.03;4.63;;;5.00;99.90;;;;;;5095252;28;20944;-62
2024/01/26 00:28:47;;;;;;;10.63;4.17;;;5.20;99.90;;;;;;5100678;27;20200;-53
2024/01/26 00:31:17;;;;;;;18.30;4.87;;;5.20;99.90;;;;;;5096567;27;20245;-56
2024/01/26 00:33:43;;;;;;;17.90;5.20;;;5.30;99.90;;;;;;5097614;27;20205;-53
2024/01/26 00:36:08;;;;;;;15.40;3.63;;;5.20;99.90;;;;;;5095463;27;20284;-53
2024/01/26 00:38:34;;;;;;;14.23;4.70;;;5.10;99.90;;;;;;5093797;27;20591;-53
2024/01/26 00:40:59;;;;;;;16.33;5.63;;;5.30;99.90;;;;;;5076158;27;20260;-55
2024/01/26 00:43:25;;;;;;;16.33;4.13;;;5.30;99.90;;;;;;5098575;27;20780;-53
2024/01/26 00:45:51;;;;;;;17.67;4.40;;;5.40;99.90;;;;;;5098869;27;20196;-53
2024/01/26 00:48:16;;;;;;;19.63;4.60;;;5.30;99.90;;;;;;5096830;27;20364;-52
2024/01/26 00:50:42;;;;;;;11.70;3.90;;;5.00;99.90;;;;;;5094323;27;20275;-56
2024/01/26 00:53:08;;;;;;;19.23;5.50;;;4.80;99.90;;;;;;5097186;27;20212;-53
2024/01/26 00:55:33;;;;;;;21.50;5.73;;;4.90;99.90;;;;;;5079872;28;20193;-54
2024/01/26 00:57:59;;;;;;;15.13;4.13;;;5.00;99.90;;;;;;5078251;27;20740;-53
2024/01/26 01:00:26;;;;;;;15.77;5.07;;;5.00;99.90;;;;;;5097010;27;20200;-53
2024/01/26 01:02:52;;;;;;;16.17;5.73;;;4.90;99.90;;;;;;5092727;27;20577;-54
2024/01/26 01:05:17;;;;;;;16.17;4.43;;;4.80;99.90;;;;;;5092528;27;20761;-59
2024/01/26 01:07:43;;;;;;;15.33;4.67;;;4.90;99.90;;;;;;5074024;28;20891;-59
2024/01/26 01:10:12;;;;;;;11.23;5.30;;;5.00;99.90;;;;;;5093956;27;20188;-55
2024/01/26 01:12:39;;;;;;;15.80;4.43;;;5.10;99.90;;;;;;5075459;28;20223;-53
2024/01/26 01:15:05;;;;;;;18.17;4.97;;;4.80;99.90;;;;;;5095383;27;20221;-54
2024/01/26 01:17:31;;;;;;;15.33;4.90;;;4.90;99.90;;;;;;5128245;22;20225;-54
2024/01/26 01:19:57;;;;;;;15.73;4.83;;;5.10;99.90;;;;;;5092140;28;20601;-53
2024/01/26 01:22:22;;;;;;;19.60;4.73;;;5.10;99.90;;;;;;5090784;28;20197;-53
2024/01/26 01:24:48;;;;;;;11.70;5.37;;;5.10;99.90;;;;;;5093426;27;20200;-54
2024/01/26 01:27:14;;;;;;;16.23;4.97;;;5.10;99.90;;;;;;5070023;28;20754;-55
2024/01/26 01:29:39;;;;;;;19.30;5.07;;;5.20;99.90;;;;;;5093028;28;20204;-60
2024/01/26 01:32:05;;;;;;;12.70;5.03;;;5.20;99.90;;;;;;5093961;27;20721;-53
2024/01/26 01:34:30;;;;;;;12.67;5.03;;;5.20;99.90;;;;;;5095202;27;20200;-53
2024/01/26 01:36:56;;;;;;;18.23;5.13;;;5.10;99.90;;;;;;5093228;27;20214;-54
2024/01/26 01:39:21;;;;;;;16.73;4.80;;;5.20;99.90;;;;;;5095639;27;20243;-58
2024/01/26 01:41:48;;;;;;;16.33;4.83;;;5.00;99.90;;;;;;5071392;28;20206;-61
2024/01/26 01:44:13;;;;;;;14.63;5.03;;;5.10;99.90;;;;;;5092286;27;20754;-61
2024/01/26 01:46:39;;;;;;;14.60;4.50;;;5.00;99.90;;;;;;5096136;27;20202;-60
2024/01/26 01:49:08;;;;;;;22.53;5.40;;;5.00;99.90;;;;;;5095385;28;20201;-58
2024/01/26 01:51:35;;;;;;;12.03;5.60;;;5.00;99.90;;;;;;5089432;27;20208;-56
2024/01/26 01:54:01;;;;;;;16.03;4.23;;;5.20;99.90;;;;;;5055457;28;20746;-53
2024/01/26 01:56:28;;;;;;;17.23;5.20;;;5.20;99.90;;;;;;5079925;28;20230;-52
2024/01/26 01:58:55;;;;;;;17.40;6.53;;;5.20;99.90;;;;;;5073513;28;20209;-53
2024/01/26 02:01:21;;;;;;;14.30;5.30;;;5.20;99.90;;;;;;5068326;28;20198;-55
2024/01/26 02:03:46;;;;;;;26.10;5.97;;;5.10;99.90;;;;;;5065944;28;20294;-59
2024/01/26 02:06:12;;;;;;;12.40;5.27;;;5.10;99.90;;;;;;5072457;28;20209;-52
2024/01/26 02:08:39;;;;;;;15.57;5.57;;;5.10;99.90;;;;;;5071167;28;20197;-53
2024/01/26 02:11:04;;;;;;;12.80;5.63;;;5.10;99.90;;;;;;5074422;28;20255;-53
2024/01/26 02:13:30;;;;;;;15.27;4.80;;;5.00;99.90;;;;;;5068737;28;20618;-54
2024/01/26 02:15:55;;;;;;;15.83;5.87;;;4.90;99.90;;;;;;5071382;28;20201;-54
2024/01/26 02:18:21;;;;;;;11.80;4.77;;;4.90;99.90;;;;;;5053660;28;20695;-53
2024/01/26 02:20:46;;;;;;;16.67;5.27;;;5.00;99.90;;;;;;5041539;28;20199;-53
2024/01/26 02:23:21;;;;;;;13.57;5.20;;;4.90;99.90;;;;;;5048287;28;20691;-54
2024/01/26 02:25:46;;;;;;;17.13;5.27;;;4.90;99.90;;;;;;5048136;28;20331;-53
2024/01/26 02:28:11;;;;;;;19.63;5.60;;;4.90;99.90;;;;;;5042719;28;20289;-53
2024/01/26 02:30:37;;;;;;;12.03;5.33;;;4.80;99.90;;;;;;5049704;28;20186;-53
2024/01/26 02:33:03;;;;;;;21.23;5.47;;;4.80;99.90;;;;;;5033784;28;20218;-53
2024/01/26 02:35:28;;;;;;;14.17;5.30;;;4.70;99.90;;;;;;5047634;28;20206;-53
2024/01/26 02:37:54;;;;;;;21.77;6.50;;;4.70;99.90;;;;;;5044823;28;20210;-53
2024/01/26 02:40:19;;;;;;;18.20;6.80;;;4.70;99.90;;;;;;5048826;28;21199;-53
2024/01/26 02:42:45;;;;;;;17.90;6.17;;;4.70;99.90;;;;;;5048148;28;20209;-52
2024/01/26 02:45:10;;;;;;;18.10;5.83;;;4.70;99.90;;;;;;5050259;28;20834;-54
2024/01/26 02:47:36;;;;;;;19.47;5.60;;;4.60;99.90;;;;;;5033056;28;20252;-53
2024/01/26 02:50:02;;;;;;;16.63;5.80;;;4.50;99.90;;;;;;5046902;28;20711;-54
2024/01/26 02:52:27;;;;;;;17.10;6.30;;;4.50;99.90;;;;;;5039885;28;20221;-53
2024/01/26 02:54:53;;;;;;;13.30;5.97;;;4.50;99.90;;;;;;5044324;28;20205;-53
2024/01/26 02:57:18;;;;;;;19.33;6.17;;;4.50;99.90;;;;;;5031328;28;20199;-53
2024/01/26 02:59:44;;;;;;;14.37;5.47;;;4.40;99.90;;;;;;5047769;28;20198;-55
2024/01/26 03:02:09;;;;;;;22.10;5.93;;;4.40;99.90;;;;;;5047742;28;20614;-53
2024/01/26 03:04:35;;;;;;;7.93;4.83;;;4.50;99.90;;;;;;5045708;28;20194;-53
2024/01/26 03:07:00;;;;;;;15.53;5.47;;;4.50;99.90;;;;;;5051414;28;20206;-55
2024/01/26 03:09:26;;;;;;;16.60;5.60;;;4.50;99.90;;;;;;5048008;28;20197;-53
2024/01/26 03:11:52;;;;;;;16.60;5.37;;;4.60;99.90;;;;;;5048380;28;20226;-53
2024/01/26 03:14:18;;;;;;;23.73;6.97;;;4.70;99.90;;;;;;5030210;28;20201;-53
2024/01/26 03:16:44;;;;;;;12.33;4.40;;;4.70;99.90;;;;;;5032894;28;20281;-53
2024/01/26 03:19:09;;;;;;;15.50;6.10;;;4.70;99.90;;;;;;5081587;28;20283;-52
2024/01/26 03:21:41;;;;;;;16.40;6.23;;;4.80;99.90;;;;;;5061856;28;20201;-53
2024/01/26 03:24:06;;;;;;;14.13;5.90;;;4.90;99.90;;;;;;5077375;28;20329;-53
2024/01/26 03:26:32;;;;;;;14.27;5.87;;;4.90;99.90;;;;;;5080471;28;20276;-53
2024/01/26 03:28:57;;;;;;;23.53;6.40;;;4.80;99.90;;;;;;5091267;28;20247;-52
2024/01/26 03:31:23;;;;;;;17.27;6.07;;;4.70;99.90;;;;;;5080621;28;20612;-53
2024/01/26 03:33:48;;;;;;;17.30;6.80;;;4.80;99.90;;;;;;5074701;28;20197;-53
2024/01/26 03:36:14;;;;;;;14.23;6.30;;;4.70;99.90;;;;;;5075872;28;20585;-53
2024/01/26 03:38:40;;;;;;;14.30;6.23;;;4.70;99.90;;;;;;5079622;28;20189;-55
2024/01/26 03:41:06;;;;;;;19.43;7.17;;;4.70;99.90;;;;;;5080467;28;20741;-53
2024/01/26 03:43:31;;;;;;;18.30;6.13;;;4.70;99.90;;;;;;5076013;28;20758;-53
2024/01/26 03:45:57;;;;;;;19.87;5.97;;;4.60;99.90;;;;;;5062812;28;20216;-53
2024/01/26 03:48:23;;;;;;;16.80;6.10;;;4.60;99.90;;;;;;5081397;28;20201;-52
2024/01/26 03:50:48;;;;;;;13.57;6.33;;;4.60;99.90;;;;;;5075884;28;20224;-53
2024/01/26 03:53:14;;;;;;;17.63;6.83;;;4.70;99.90;;;;;;5083275;28;20225;-53
2024/01/26 03:55:39;;;;;;;16.73;7.20;;;4.60;99.90;;;;;;5075172;28;20562;-54
2024/01/26 03:58:05;;;;;;;14.13;6.10;;;4.50;99.90;;;;;;5077007;28;20192;-52
2024/01/26 04:00:32;;;;;;;15.87;6.13;;;4.50;99.90;;;;;;5076501;28;20624;-52
2024/01/26 04:02:57;;;;;;;17.63;7.13;;;4.60;99.90;;;;;;5058002;28;20243;-52
2024/01/26 04:05:23;;;;;;;23.20;7.00;;;4.70;99.90;;;;;;5072757;28;20202;-52
2024/01/26 04:07:48;;;;;;;22.20;7.53;;;4.70;99.90;;;;;;5072960;28;20229;-52
2024/01/26 04:10:14;;;;;;;13.63;6.00;;;4.70;99.90;;;;;;5073969;28;20678;-52
2024/01/26 04:12:40;;;;;;;15.77;6.77;;;4.70;99.90;;;;;;5076141;28;20212;-53
2024/01/26 04:15:05;;;;;;;16.47;7.47;;;4.60;99.90;;;;;;5075984;28;20648;-51
2024/01/26 04:17:31;;;;;;;19.13;7.03;;;4.50;99.90;;;;;;5077939;28;20664;-53
2024/01/26 04:19:56;;;;;;;18.17;6.93;;;4.60;99.90;;;;;;5060765;28;20201;-52
2024/01/26 04:22:22;;;;;;;13.87;6.03;;;4.70;99.90;;;;;;5060382;28;20201;-53
2024/01/26 04:24:47;;;;;;;14.23;6.00;;;4.70;99.90;;;;;;5074376;28;20208;-53
2024/01/26 04:27:13;;;;;;;8.70;5.00;;;4.90;99.90;;;;;;5076666;28;20255;-53
2024/01/26 04:29:38;;;;;;;13.33;5.27;;;4.90;99.90;;;;;;5075559;28;20319;-54
2024/01/26 04:32:04;;;;;;;14.20;5.30;;;4.80;99.90;;;;;;5074863;28;20224;-54
2024/01/26 04:34:30;;;;;;;16.03;6.27;;;4.80;99.90;;;;;;5059608;28;22845;-52
2024/01/26 04:36:55;;;;;;;14.73;5.83;;;4.80;99.90;;;;;;5077207;28;20196;-52
2024/01/26 04:39:21;;;;;;;18.80;5.93;;;4.90;99.90;;;;;;5074493;28;20236;-52
2024/01/26 04:41:46;;;;;;;20.47;7.33;;;4.90;99.90;;;;;;5063678;28;20222;-52
2024/01/26 04:44:12;;;;;;;15.73;6.33;;;4.90;99.90;;;;;;5077517;28;20221;-52
2024/01/26 04:46:37;;;;;;;12.50;5.80;;;4.90;99.90;;;;;;5076009;28;20964;-53
2024/01/26 04:49:03;;;;;;;13.40;6.77;;;4.90;99.90;;;;;;5075650;28;20212;-52
2024/01/26 04:51:29;;;;;;;14.23;6.57;;;4.90;99.90;;;;;;5066105;28;20346;-53
2024/01/26 04:53:54;;;;;;;15.40;6.87;;;4.80;99.90;;;;;;5072854;28;20213;-53
2024/01/26 04:56:21;;;;;;;21.43;6.27;;;4.80;99.90;;;;;;5078253;28;20246;-52
2024/01/26 04:58:47;;;;;;;12.47;6.47;;;4.80;99.90;;;;;;5081156;28;20200;-53
2024/01/26 05:01:12;;;;;;;14.30;7.10;;;4.80;99.90;;;;;;5076885;28;20397;-53
2024/01/26 05:03:38;;;;;;;15.57;6.53;;;4.80;99.90;;;;;;5071495;28;20198;-52
2024/01/26 05:06:04;;;;;;;19.37;7.07;;;4.80;99.90;;;;;;5069060;28;20202;-52
2024/01/26 05:08:29;;;;;;;16.10;7.40;;;4.80;99.90;;;;;;5084095;28;20206;-59
2024/01/26 05:10:55;;;;;;;17.20;7.00;;;4.80;99.90;;;;;;5076616;28;20255;-55
2024/01/26 05:13:20;;;;;;;15.97;6.47;;;4.80;99.90;;;;;;5079988;28;20211;-54
2024/01/26 05:15:46;;;;;;;18.93;7.20;;;4.80;99.90;;;;;;5077643;28;20628;-54
2024/01/26 05:18:11;;;;;;;25.13;8.03;;;4.70;99.90;;;;;;5079260;28;20723;-53
2024/01/26 05:20:37;;;;;;;19.57;7.90;;;4.80;99.90;;;;;;5076350;28;20233;-52
2024/01/26 05:23:03;;;;;;;15.00;6.20;;;4.90;99.90;;;;;;5074895;28;20197;-52
2024/01/26 05:25:28;;;;;;;13.20;5.60;;;4.90;99.90;;;;;;5084171;28;20279;-52
2024/01/26 05:27:54;;;;;;;14.07;6.00;;;5.00;99.90;;;;;;5076282;28;20296;-53
2024/01/26 05:30:20;;;;;;;11.57;6.93;;;5.00;99.90;;;;;;5083680;28;20198;-52
2024/01/26 05:32:45;;;;;;;12.33;5.93;;;5.10;99.90;;;;;;5057078;28;20232;-58
2024/01/26 05:35:11;;;;;;;20.27;7.33;;;5.00;99.90;;;;;;5071890;28;20205;-56
2024/01/26 05:37:36;;;;;;;15.67;6.57;;;4.90;99.90;;;;;;5079058;28;20205;-57
2024/01/26 05:40:06;;;;;;;12.23;5.83;;;4.80;99.90;;;;;;5078293;28;20280;-57
2024/01/26 05:42:32;;;;;;;12.93;6.00;;;4.80;99.90;;;;;;5078387;28;20201;-51
2024/01/26 05:44:57;;;;;;;15.20;6.23;;;4.90;99.90;;;;;;5074000;28;20716;-52
2024/01/26 05:47:23;;;;;;;14.47;5.37;;;4.90;99.90;;;;;;5075032;28;20220;-53
2024/01/26 05:49:50;;;;;;;12.37;5.40;;;4.90;99.90;;;;;;5069750;28;20233;-53
2024/01/26 05:52:16;;;;;;;10.43;5.93;;;4.90;99.90;;;;;;5075098;28;20245;-52
2024/01/26 05:54:42;;;;;;;13.67;7.67;;;4.80;99.90;;;;;;5072866;28;20691;-52
2024/01/26 05:57:08;;;;;;;15.03;6.50;;;4.80;99.90;;;;;;5078884;28;20614;-53
2024/01/26 05:59:36;;;;;;;12.03;6.50;;;4.80;99.90;;;;;;5077980;28;20244;-53
2024/01/26 06:02:03;;;;;;;19.27;5.70;;;4.90;99.90;;;;;;5077590;28;20201;-53
2024/01/26 06:04:28;;;;;;;14.67;5.80;;;4.90;99.90;;;;;;5070838;28;20732;-53
2024/01/26 06:06:53;;;;;;;13.73;5.97;;;4.90;99.90;;;;;;5083165;28;20199;-52
2024/01/26 06:09:19;;;;;;;15.73;6.00;;;4.90;99.90;;;;;;5078133;28;20740;-53
2024/01/26 06:11:44;;;;;;;15.00;6.37;;;4.90;99.90;;;;;;5080010;28;20221;-58
2024/01/26 06:14:10;;;;;;;18.47;6.00;;;4.90;99.90;;;;;;5077433;28;20208;-52
2024/01/26 06:16:35;;;;;;;16.63;6.63;;;4.90;99.90;;;;;;5074494;28;20242;-53
2024/01/26 06:19:01;;;;;;;12.00;6.10;;;4.90;99.90;;;;;;5078492;28;20213;-54
2024/01/26 06:21:26;;;;;;;15.80;5.50;;;4.90;99.90;;;;;;5077287;28;20216;-53
2024/01/26 06:23:52;;;;;;;14.03;5.93;;;4.80;99.90;;;;;;5083390;28;20752;-52
2024/01/26 06:26:19;;;;;;;15.90;6.20;;;4.80;99.90;;;;;;5084537;28;20291;-53
2024/01/26 06:28:45;;;;;;;16.37;6.40;;;4.80;99.90;;;;;;5069077;28;20488;-53
2024/01/26 06:31:11;;;;;;;21.20;6.40;;;4.80;99.90;;;;;;5072840;28;20205;-53
2024/01/26 06:33:36;;;;;;;17.30;6.73;;;4.80;99.90;;;;;;5055253;28;20222;-52
2024/01/26 06:36:02;;;;;;;15.97;6.73;;;4.70;99.90;;;;;;5076456;28;20203;-53
2024/01/26 06:38:27;;;;;;;19.57;6.60;;;4.70;99.90;;;;;;5056223;28;20221;-53
2024/01/26 06:40:53;;;;;;;12.73;7.10;;;4.70;99.90;;;;;;5075434;28;20284;-52
2024/01/26 06:43:19;;;;;;;18.37;6.60;;;4.70;99.90;;;;;;5075054;28;20201;-52
2024/01/26 06:45:45;;;;;;;22.33;7.37;;;4.60;99.90;;;;;;5084811;28;20219;-52
2024/01/26 06:48:11;;;;;;;12.80;6.63;;;4.70;99.90;;;;;;5079712;28;20686;-53
2024/01/26 06:50:38;;;;;;;13.13;6.93;;;4.60;99.90;;;;;;5060341;28;20945;-54
2024/01/26 06:53:04;;;;;;;18.10;7.13;;;4.60;99.90;;;;;;5074974;28;20240;-53
2024/01/26 06:55:29;;;;;;;22.23;7.10;;;4.60;99.90;;;;;;5075421;28;20505;-53
2024/01/26 06:57:56;;;;;;;9.73;6.33;;;4.60;99.90;;;;;;5078209;28;20213;-53
2024/01/26 07:00:21;;;;;;;10.10;7.37;;;4.50;99.90;;;;;;5084203;28;20189;-53
2024/01/26 07:02:47;;;;;;;20.23;6.97;;;4.50;99.90;;;;;;5076103;28;20216;-53
2024/01/26 07:05:13;;;;;;;18.83;7.63;;;4.50;99.90;;;;;;5078440;28;20205;-52
2024/01/26 07:07:38;;;;;;;19.37;7.60;;;4.50;99.90;;;;;;5085180;28;20220;-53
2024/01/26 07:10:04;;;;;;;14.07;7.83;;;4.40;99.90;;;;;;5077140;28;20220;-53
2024/01/26 07:12:30;;;;;;;21.67;8.40;;;4.40;99.90;;;;;;5072264;28;20510;-52
2024/01/26 07:14:55;;;;;;;11.80;6.60;;;4.40;99.90;;;;;;5076076;28;20213;-54
2024/01/26 07:17:21;;;;;;;16.00;7.53;;;4.50;99.90;;;;;;5071816;28;20780;-53
2024/01/26 07:19:46;;;;;;;23.57;7.70;;;4.50;99.90;;;;;;5054364;28;20465;-53
2024/01/26 07:22:12;;;;;;;12.57;6.60;;;4.40;99.90;;;;;;5056898;28;20197;-53
2024/01/26 07:24:37;;;;;;;11.07;6.70;;;4.40;99.90;;;;;;5058760;28;20198;-53
2024/01/26 07:27:03;;;;;;;16.83;7.77;;;4.40;99.90;;;;;;5059830;28;20257;-52
2024/01/26 07:29:28;;;;;;;15.43;7.67;;;4.40;99.90;;;;;;5057072;28;20576;-52
2024/01/26 07:31:54;;;;;;;17.90;8.67;;;4.50;99.90;;;;;;5036515;28;20322;-53
2024/01/26 07:34:20;;;;;;;15.20;7.33;;;4.70;99.90;;;;;;5063869;28;20227;-52
2024/01/26 07:36:45;;;;;;;15.40;7.60;;;4.80;99.90;;;;;;5060812;28;20256;-53
2024/01/26 07:39:12;;;;;;;16.23;7.37;;;4.70;99.90;;;;;;5053783;28;20622;-52
2024/01/26 07:41:38;;;;;;;19.13;7.17;;;4.70;99.90;;;;;;5065790;28;20198;-52
2024/01/26 07:44:03;;;;;;;15.97;7.07;;;4.70;99.90;;;;;;5040090;28;20573;-52
2024/01/26 07:46:29;;;;;;;17.57;8.00;;;4.70;99.90;;;;;;5062241;28;20575;-53
2024/01/26 07:48:54;;;;;;;18.17;8.23;;;4.80;99.90;;;;;;5039715;28;20201;-53
2024/01/26 07:51:20;;;;;;;17.93;7.63;;;4.90;99.90;;;;;;5037307;28;20182;-54
2024/01/26 07:53:46;;;;;;;16.63;7.07;;;5.00;99.90;;;;;;5059827;28;20210;-55
2024/01/26 07:56:11;;;;;;;14.27;7.60;;;4.90;99.90;;;;;;5056556;28;20233;-54
2024/01/26 07:58:36;;;;;;;16.00;6.27;;;5.00;99.90;;;;;;5056222;28;20198;-54
2024/01/26 08:01:02;;;;;;;18.53;8.50;;;5.10;99.90;;;;;;5053890;28;20220;-56
2024/01/26 08:03:29;;;;;;;18.13;7.47;;;5.10;99.90;;;;;;5049646;28;20237;-54
2024/01/26 08:05:55;;;;;;;19.53;8.03;;;5.20;99.90;;;;;;5053419;28;20285;-57
2024/01/26 08:08:21;;;;;;;22.03;8.17;;;5.20;99.90;;;;;;5037312;28;20273;-54
2024/01/26 08:10:46;;;;;;;16.63;6.93;;;5.20;99.90;;;;;;5055779;28;20794;-57
2024/01/26 08:13:12;;;;;;;17.47;7.50;;;5.20;99.90;;;;;;5057450;28;20641;-55
2024/01/26 08:15:37;;;;;;;32.43;7.97;;;5.20;99.90;;;;;;5055695;28;20211;-59
2024/01/26 08:18:03;;;;;;;16.07;6.93;;;5.30;99.90;;;;;;5056394;28;20760;-53
2024/01/26 08:20:28;;;;;;;15.80;7.20;;;5.30;99.90;;;;;;5062480;28;20563;-53
2024/01/26 08:22:54;;;;;;;18.63;7.23;;;5.40;99.90;;;;;;5040894;28;20194;-53
2024/01/26 08:25:19;;;;;;;15.97;6.70;;;5.40;99.90;;;;;;5058471;28;20252;-53
2024/01/26 08:27:45;;;;;;;20.33;8.50;;;5.30;99.90;;;;;;5050707;28;20243;-53
2024/01/26 08:30:11;;;;;;;20.43;7.67;;;5.40;99.90;;;;;;5051276;28;20201;-53
2024/01/26 08:32:36;;;;;;;16.43;7.27;;;5.60;99.90;;;;;;5070431;28;20297;-53
2024/01/26 08:35:02;;;;;;;17.20;7.50;;;5.70;99.90;;;;;;5049424;28;20202;-53
2024/01/26 08:37:28;;;;;;;16.70;7.37;;;5.70;99.90;;;;;;5063947;28;20685;-54
2024/01/26 08:39:54;;;;;;;16.30;8.27;;;5.80;99.90;;;;;;5065623;28;20623;-54
2024/01/26 08:42:20;;;;;;;15.93;7.73;;;5.80;99.90;;;;;;5056227;28;20678;-55
2024/01/26 08:44:45;;;;;;;15.53;7.47;;;5.90;99.90;;;;;;5058440;28;20194;-55
2024/01/26 08:47:10;;;;;;;16.83;6.47;;;5.90;99.90;;;;;;5065622;28;20202;-54
2024/01/26 08:49:36;;;;;;;20.10;7.27;;;5.90;99.90;;;;;;5039382;28;20665;-54
2024/01/26 08:52:02;;;;;;;18.93;7.43;;;5.80;99.90;;;;;;5060186;28;20344;-53
2024/01/26 08:54:27;;;;;;;15.57;7.10;;;5.80;99.90;;;;;;5058639;28;20496;-52
2024/01/26 08:56:53;;;;;;;16.90;7.70;;;5.70;99.90;;;;;;5059494;28;20220;-52
2024/01/26 08:59:18;;;;;;;14.57;6.60;;;5.70;99.90;;;;;;5058335;28;20272;-55
2024/01/26 09:01:44;;;;;;;16.33;7.10;;;5.70;99.90;;;;;;5055567;28;20201;-59
2024/01/26 09:04:09;;;;;;;19.43;7.43;;;5.70;99.90;;;;;;5039085;28;20232;-57
2024/01/26 09:06:35;;;;;;;13.23;6.77;;;5.70;99.90;;;;;;5062750;28;20198;-57
2024/01/26 09:09:01;;;;;;;16.73;7.07;;;5.70;99.90;;;;;;5070626;28;20203;-55
2024/01/26 09:11:27;;;;;;;12.80;7.63;;;5.80;99.90;;;;;;5065379;28;20223;-54
2024/01/26 09:13:52;;;;;;;16.97;7.47;;;5.80;99.90;;;;;;5069223;28;20193;-61
2024/01/26 09:16:18;;;;;;;14.37;7.10;;;5.80;99.90;;;;;;5072835;28;20299;-53
2024/01/26 09:18:43;;;;;;;17.30;6.90;;;5.80;99.90;;;;;;5042732;28;20214;-53
2024/01/26 09:21:12;;;;;;;16.93;7.20;;;5.90;99.90;;;;;;5049929;28;20202;-53
2024/01/26 09:23:38;;;;;;;17.20;6.70;;;5.90;99.90;;;;;;5035648;28;20209;-52
2024/01/26 09:26:04;;;;;;;16.53;7.47;;;6.00;99.90;;;;;;5055524;28;20622;-55
2024/01/26 09:28:29;;;;;;;11.20;6.97;;;6.10;99.90;;;;;;5045621;28;20304;-54
2024/01/26 09:30:55;;;;;;;15.73;7.27;;;6.20;99.90;;;;;;5056038;28;20201;-54
2024/01/26 09:33:21;;;;;;;16.57;7.63;;;6.30;99.90;;;;;;5051620;28;20209;-54
2024/01/26 09:35:47;;;;;;;14.33;7.03;;;6.40;99.90;;;;;;5057313;28;20206;-58
2024/01/26 09:38:18;;;;;;;18.77;7.13;;;6.50;99.90;;;;;;5057240;28;20752;-58
2024/01/26 09:40:43;;;;;;;14.27;6.40;;;6.60;99.90;;;;;;5053159;28;20204;-59
2024/01/26 09:43:09;;;;;;;21.63;8.20;;;6.60;99.90;;;;;;5060655;28;20197;-57
2024/01/26 09:45:35;;;;;;;20.47;8.50;;;6.60;99.90;;;;;;5061158;28;20237;-56
2024/01/26 09:48:05;;;;;;;15.70;7.43;;;6.60;99.90;;;;;;5045126;28;20273;-54
2024/01/26 09:50:31;;;;;;;11.77;6.50;;;6.70;99.90;;;;;;5037642;28;20660;-53
2024/01/26 09:52:58;;;;;;;19.93;6.67;;;6.70;99.90;;;;;;5053567;28;20244;-53
2024/01/26 09:55:24;;;;;;;14.73;7.13;;;6.70;99.90;;;;;;5049218;28;20190;-54
2024/01/26 09:57:51;;;;;;;11.40;7.57;;;6.70;99.90;;;;;;5050420;28;20247;-52
2024/01/26 10:00:17;;;;;;;11.57;6.87;;;6.70;99.90;;;;;;5061622;28;20265;-54
2024/01/26 10:02:43;;;;;;;15.33;6.40;;;6.70;99.90;;;;;;5045646;28;20285;-53
2024/01/26 10:05:09;;;;;;;18.07;7.30;;;6.70;99.90;;;;;;5067007;28;20212;-54
2024/01/26 10:07:35;;;;;;;13.10;6.50;;;6.70;99.90;;;;;;5059960;28;20579;-54
2024/01/26 10:10:01;;;;;;;15.13;7.10;;;6.70;99.90;;;;;;5070385;28;20285;-57
2024/01/26 10:12:26;;;;;;;15.73;7.07;;;6.80;99.90;;;;;;5062770;28;20266;-54
2024/01/26 10:15:07;;;;;;;14.53;6.60;;;6.80;99.90;;;;;;5061462;28;20201;-54
2024/01/26 10:17:33;;;;;;;15.57;6.67;;;6.90;99.90;;;;;;5034285;28;20276;-58
2024/01/26 10:20:18;;;;;;;15.50;6.70;;;6.90;99.90;;;;;;5047072;28;20198;-53
2024/01/26 10:22:45;;;;;;;16.67;7.57;;;7.10;99.90;;;;;;5032188;28;20186;-54
2024/01/26 10:25:12;;;;;;;14.03;7.47;;;7.20;99.90;;;;;;5051754;28;20209;-53
2024/01/26 10:27:37;;;;;;;14.00;6.47;;;7.30;99.90;;;;;;5053528;28;20676;-55
2024/01/26 10:30:04;;;;;;;9.07;6.40;;;7.30;99.90;;;;;;5036707;28;20229;-57
2024/01/26 10:32:32;;;;;;;12.60;5.73;;;7.30;99.90;;;;;;5054759;28;20229;-54
2024/01/26 10:35:02;;;;;;;13.17;6.33;;;7.30;99.90;;;;;;5057197;28;20201;-53
2024/01/26 10:37:35;;;;;;;19.10;7.10;;;7.30;99.90;;;;;;5058965;28;20205;-56
2024/01/26 10:40:04;;;;;;;19.40;8.10;;;7.30;99.90;;;;;;5059412;28;20198;-54
2024/01/26 10:42:30;;;;;;;15.70;6.70;;;7.40;99.90;;;;;;5053461;28;20209;-55
2024/01/26 10:44:57;;;;;;;16.93;7.00;;;7.40;99.90;;;;;;5048441;28;20290;-56
2024/01/26 10:47:25;;;;;;;14.23;7.23;;;7.50;99.90;;;;;;5052772;28;20198;-53
2024/01/26 10:50:04;;;;;;;13.37;6.47;;;7.60;99.90;;;;;;5044612;28;20206;-57
2024/01/26 10:52:34;;;;;;;11.93;6.30;;;7.60;99.90;;;;;;5053147;28;20218;-54
2024/01/26 10:54:59;;;;;;;12.13;7.00;;;7.80;99.90;;;;;;5047610;28;20216;-54
2024/01/26 10:57:25;;;;;;;10.80;5.63;;;7.90;99.90;;;;;;5048097;28;20186;-53
2024/01/26 10:59:51;;;;;;;15.83;6.33;;;8.00;99.90;;;;;;5052617;28;20194;-57
2024/01/26 11:02:31;;;;;;;10.20;5.83;;;8.00;99.90;;;;;;5030884;28;20278;-54
2024/01/26 11:05:01;;;;;;;13.73;6.43;;;8.10;99.90;;;;;;5050745;28;20193;-53
2024/01/26 11:07:27;;;;;;;13.97;7.17;;;8.10;99.90;;;;;;5047801;28;20197;-54
2024/01/26 11:09:59;;;;;;;15.87;6.87;;;8.20;99.90;;;;;;5050000;28;20281;-53
2024/01/26 11:12:26;;;;;;;14.83;6.33;;;8.20;99.90;;;;;;5052236;28;20228;-53
2024/01/26 11:15:09;;;;;;;10.73;6.60;;;8.30;99.90;;;;;;5046520;28;20293;-52
2024/01/26 11:17:54;;;;;;;14.80;6.97;;;8.30;99.90;;;;;;5061114;28;20675;-52
2024/01/26 11:20:25;;;;;;;10.80;6.23;;;8.20;99.90;;;;;;5050852;28;20575;-53
2024/01/26 11:23:11;;;;;;;10.00;7.03;;;8.30;99.90;;;;;;5056485;28;20714;-53
2024/01/26 11:25:38;;;;;;;12.93;6.00;;;8.30;99.90;;;;;;5076112;28;20272;-53
2024/01/26 11:28:08;;;;;;;15.23;6.23;;;8.30;99.90;;;;;;5081331;28;20199;-53
2024/01/26 11:30:37;;;;;;;10.30;5.87;;;8.30;99.90;;;;;;5076402;28;20216;-54
2024/01/26 11:33:13;;;;;;;13.63;6.30;;;8.40;99.90;;;;;;5061844;28;20307;-54
2024/01/26 11:35:39;;;;;;;12.33;6.50;;;8.30;99.90;;;;;;5053569;28;20185;-55
2024/01/26 11:38:05;;;;;;;11.43;6.50;;;8.30;99.90;;;;;;5072641;28;20190;-56
2024/01/26 11:40:31;;;;;;;12.73;5.43;;;8.40;99.90;;;;;;5074706;28;20556;-54
2024/01/26 11:42:57;;;;;;;15.40;5.07;;;8.40;99.90;;;;;;5070079;28;20750;-57
2024/01/26 11:45:42;;;;;;;8.53;5.23;;;8.50;99.90;;;;;;5077762;28;20608;-53
2024/01/26 11:48:09;;;;;;;12.37;5.63;;;8.50;99.90;;;;;;5072104;28;20201;-54
2024/01/26 11:50:36;;;;;;;8.73;4.87;;;8.60;99.90;;;;;;5057129;28;20194;-53
2024/01/26 11:53:02;;;;;;;7.27;5.03;;;8.60;99.90;;;;;;5074228;28;20213;-56
2024/01/26 11:55:29;;;;;;;10.20;5.83;;;8.70;99.90;;;;;;5057313;28;20198;-54
2024/01/26 11:57:55;;;;;;;7.27;5.10;;;8.70;99.90;;;;;;5055251;28;20581;-53
2024/01/26 12:00:21;;;;;;;7.90;5.03;;;8.70;99.90;;;;;;5074576;28;20193;-54
2024/01/26 12:02:46;;;;;;;10.03;6.00;;;8.70;99.90;;;;;;5071026;28;20690;-53
2024/01/26 12:05:12;;;;;;;8.80;5.20;;;8.80;99.90;;;;;;5075012;28;20410;-55
2024/01/26 12:07:41;;;;;;;8.43;5.13;;;8.80;99.90;;;;;;5075265;28;20206;-55
2024/01/26 12:10:08;;;;;;;8.90;5.73;;;8.80;99.90;;;;;;5076398;28;20198;-58
2024/01/26 12:12:33;;;;;;;9.63;5.93;;;8.90;99.90;;;;;;5077544;28;20212;-52
2024/01/26 12:15:01;;;;;;;9.53;5.10;;;8.90;99.90;;;;;;5078677;28;20244;-61
2024/01/26 12:17:27;;;;;;;7.13;5.07;;;8.70;99.90;;;;;;5079029;28;20210;-52
2024/01/26 12:19:54;;;;;;;9.60;5.93;;;8.70;99.90;;;;;;5069756;28;20296;-52
2024/01/26 12:22:19;;;;;;;9.23;5.77;;;8.60;99.90;;;;;;5071105;28;20201;-56
2024/01/26 12:24:45;;;;;;;12.40;6.23;;;8.60;99.90;;;;;;5072716;28;20193;-56
2024/01/26 12:27:11;;;;;;;6.33;5.63;;;8.60;99.90;;;;;;5078456;28;20225;-58
2024/01/26 12:29:36;;;;;;;9.60;6.43;;;8.60;99.90;;;;;;5079825;28;20258;-58
2024/01/26 12:32:04;;;;;;;7.10;4.93;;;8.60;99.90;;;;;;5078767;28;20323;-55
2024/01/26 12:34:29;;;;;;;12.43;5.30;;;8.60;99.90;;;;;;5075976;28;20981;-56
2024/01/26 12:37:01;;;;;;;8.30;5.27;;;8.60;99.90;;;;;;5071159;28;20284;-55
2024/01/26 12:39:30;;;;;;;9.07;5.70;;;8.50;99.90;;;;;;5072482;28;20975;-56
2024/01/26 12:41:57;;;;;;;11.17;6.50;;;8.60;99.90;;;;;;5072593;28;20193;-57
2024/01/26 12:44:30;;;;;;;11.63;6.10;;;8.60;99.90;;;;;;5073205;28;20299;-54